createdAt,value
2022-09-04T00:05:47.255Z,0
2022-09-04T00:15:23.946Z,0
2022-09-04T00:25:00.974Z,0
2022-09-04T00:34:37.387Z,0
2022-09-04T00:44:14.512Z,0
2022-09-04T01:03:28.578Z,0
2022-09-04T01:13:05.324Z,0
2022-09-04T01:22:42.148Z,0
2022-09-04T01:32:18.975Z,0
2022-09-04T01:41:56.060Z,0
2022-09-04T02:39:38.250Z,0
2022-09-04T02:58:51.804Z,0
2022-09-04T03:18:06.603Z,0
2022-09-04T03:27:44.351Z,0
2022-09-04T03:37:21.245Z,0
2022-09-04T03:46:58.470Z,0
2022-09-04T04:06:13.445Z,0
2022-09-04T04:15:50.989Z,0
2022-09-04T04:44:42.794Z,0
2022-09-04T04:54:20.405Z,0
2022-09-04T05:03:57.462Z,0
2022-09-04T05:23:12.828Z,0
2022-09-04T05:32:50.682Z,0
2022-09-04T05:42:28.342Z,0
2022-09-04T05:52:06.170Z,0
2022-09-04T06:20:59.322Z,0
2022-09-04T06:30:36.666Z,0
2022-09-04T06:49:50.938Z,0
2022-09-04T06:59:28.228Z,0
2022-09-04T07:09:05.770Z,0
2022-09-04T07:18:43.187Z,0
2022-09-04T07:28:21.000Z,0
2022-09-04T07:37:59.104Z,0
2022-09-04T07:57:15.273Z,0
2022-09-04T08:06:53.005Z,0
2022-09-04T08:45:25.971Z,0
2022-09-04T09:14:21.166Z,0
2022-09-04T09:33:38.886Z,1
2022-09-04T09:43:17.594Z,1
2022-09-04T10:12:40.095Z,5
2022-09-04T10:32:09.752Z,5
2022-09-04T10:41:52.280Z,5
2022-09-04T11:10:54.551Z,5
2022-09-04T11:20:32.291Z,6
2022-09-04T11:30:11.512Z,5
2022-09-04T11:49:33.095Z,5
2022-09-04T11:59:13.934Z,6
2022-09-04T12:08:53.320Z,7
2022-09-04T12:18:33.933Z,7
2022-09-04T12:28:12.870Z,5
2022-09-04T12:37:51.662Z,7
2022-09-04T12:47:31.526Z,6
2022-09-04T12:57:09.708Z,6
2022-09-04T13:06:52.835Z,5
2022-09-04T13:16:24.726Z,5
2022-09-04T13:26:03.984Z,5
2022-09-04T13:45:23.888Z,5
2022-09-04T13:54:49.963Z,5
2022-09-04T14:13:59.548Z,5
2022-09-04T14:23:37.234Z,4
2022-09-04T14:33:18.936Z,3
2022-09-04T14:42:34.827Z,4
2022-09-04T14:52:12.813Z,1
2022-09-04T15:01:41.182Z,2
2022-09-04T15:11:14.515Z,1
2022-09-04T15:30:25.306Z,1
2022-09-04T15:39:58.290Z,1
2022-09-04T16:08:45.307Z,0
2022-09-04T16:18:22.805Z,0
2022-09-04T16:27:59.077Z,0
2022-09-04T16:37:35.779Z,0
2022-09-04T16:47:13.695Z,0
2022-09-04T16:56:50.193Z,0
2022-09-04T17:06:26.883Z,0
2022-09-04T17:16:03.717Z,0
2022-09-04T17:29:06.630Z,0
2022-09-04T17:38:59.781Z,0
2022-09-04T17:44:54.715Z,0
2022-09-04T17:54:31.209Z,0
2022-09-04T18:04:12.171Z,0
2022-09-04T18:13:44.201Z,0
2022-09-04T18:23:20.625Z,0
2022-09-04T18:46:00.617Z,0
2022-09-04T18:52:10.764Z,0
2022-09-04T19:01:47.817Z,0
2022-09-04T19:11:24.764Z,0
2022-09-04T19:21:01.247Z,0
2022-09-04T19:30:38.336Z,0
2022-09-04T19:43:55.781Z,0
2022-09-04T19:59:29.404Z,0
2022-09-04T20:09:06.007Z,0
2022-09-04T20:18:42.903Z,0
2022-09-04T20:49:39.059Z,0
2022-09-04T21:06:47.832Z,0
2022-09-04T21:35:38.713Z,0
2022-09-04T21:55:39.077Z,0
2022-09-04T22:04:29.516Z,0
2022-09-04T22:14:06.441Z,0
2022-09-04T22:23:43.442Z,0
2022-09-04T22:42:57.135Z,0
2022-09-04T22:52:34.271Z,0
2022-09-04T23:02:13.837Z,0
2022-09-04T23:13:55.260Z,0
2022-09-04T23:26:19.764Z,0
2022-09-04T23:31:03.409Z,0
2022-09-04T23:40:39.054Z,0
2022-09-04T23:50:16.155Z,0
2022-09-04T23:59:53.528Z,0
